Time;durP1;ratioP1;P1;durP2;ratioP2;P2;SDS_P1;SDS_P2;PMS_P1;PMS_P2;Temp;Humidity;BMP_temperature;BMP_pressure;BME280_temperature;BME280_humidity;BME280_pressure;Samples;Min_cycle;Max_cycle;Signal;HPM_P1;HPM_P2
2021/04/22 00:00:27;;;;;;;5.88;3.17;;;;;;;12.62;63.53;101737.09;5048630;28;20400;-68
2021/04/22 00:02:54;;;;;;;9.20;3.33;;;;;;;12.58;63.54;101735.25;5049749;28;20048;-68
2021/04/22 00:05:25;;;;;;;6.65;2.92;;;;;;;12.62;63.79;101735.34;5049013;28;20102;-67
2021/04/22 00:07:54;;;;;;;7.40;3.30;;;;;;;12.66;63.66;101736.34;5047587;28;20041;-68
2021/04/22 00:10:27;;;;;;;4.45;2.60;;;;;;;12.69;63.35;101733.72;5031976;28;20037;-68
2021/04/22 00:12:54;;;;;;;9.00;3.10;;;;;;;12.65;63.47;101731.88;5049303;28;20416;-68
2021/04/22 00:15:22;;;;;;;5.55;2.63;;;;;;;12.50;63.98;101737.72;5047618;28;20037;-67
2021/04/22 00:17:51;;;;;;;5.57;2.50;;;;;;;12.36;64.73;101736.50;5047919;28;20056;-67
2021/04/22 00:20:18;;;;;;;6.78;2.78;;;;;;;12.39;64.52;101728.63;5049790;28;20037;-67
2021/04/22 00:22:46;;;;;;;5.07;2.00;;;;;;;12.24;64.94;101722.97;5048787;28;20143;-68
2021/04/22 00:25:14;;;;;;;5.03;2.30;;;;;;;12.14;65.59;101726.25;5048927;28;21719;-67
2021/04/22 00:27:43;;;;;;;8.07;2.47;;;;;;;12.20;65.44;101731.72;5048779;28;20065;-70
2021/04/22 00:30:12;;;;;;;10.18;4.00;;;;;;;12.30;65.00;101728.41;5048048;28;20123;-67
2021/04/22 00:32:39;;;;;;;7.65;2.90;;;;;;;12.12;65.35;101731.50;5048498;28;20124;-68
2021/04/22 00:35:08;;;;;;;7.97;3.55;;;;;;;12.12;65.35;101736.81;5048928;28;20412;-68
2021/04/22 00:37:35;;;;;;;8.63;3.25;;;;;;;12.14;65.46;101734.22;5048211;28;20698;-68
2021/04/22 00:40:05;;;;;;;8.82;3.20;;;;;;;12.18;65.10;101738.69;5048529;28;20633;-68
2021/04/22 00:42:32;;;;;;;8.15;2.92;;;;;;;12.14;65.45;101731.56;5049114;28;20060;-68
2021/04/22 00:45:01;;;;;;;6.82;2.78;;;;;;;12.15;65.47;101735.97;5049041;28;20037;-68
2021/04/22 00:47:28;;;;;;;5.82;2.85;;;;;;;12.14;65.81;101740.38;5048450;28;20041;-68
2021/04/22 00:49:55;;;;;;;5.55;2.60;;;;;;;12.14;65.90;101731.56;5048449;28;20121;-68
2021/04/22 00:52:23;;;;;;;6.00;2.58;;;;;;;12.18;65.96;101731.66;5048151;28;20045;-67
2021/04/22 00:54:50;;;;;;;10.90;4.63;;;;;;;12.26;65.78;101721.25;5048238;28;20509;-68
2021/04/22 00:57:17;;;;;;;9.93;4.55;;;;;;;12.19;66.00;101727.25;5030762;28;20128;-68
2021/04/22 00:59:44;;;;;;;9.68;4.50;;;;;;;12.11;66.07;101731.47;5047729;28;20057;-68
2021/04/22 01:02:13;;;;;;;7.07;3.58;;;;;;;12.04;66.26;101726.88;5048570;28;20507;-67
2021/04/22 01:04:40;;;;;;;7.57;3.55;;;;;;;12.02;66.32;101729.47;5048344;28;20138;-67
2021/04/22 01:07:08;;;;;;;5.63;2.88;;;;;;;11.93;66.45;101732.81;5048384;28;20128;-68
2021/04/22 01:09:35;;;;;;;6.25;4.07;;;;;;;11.90;66.60;101723.88;5048542;28;20065;-68
2021/04/22 01:12:04;;;;;;;25.67;9.15;;;;;;;12.00;66.50;101720.63;5048161;28;20129;-68
2021/04/22 01:14:31;;;;;;;9.90;4.43;;;;;;;12.00;66.13;101730.31;5048262;28;20041;-68
2021/04/22 01:16:58;;;;;;;9.40;2.88;;;;;;;11.91;66.35;101721.28;5047843;28;20131;-68
2021/04/22 01:19:26;;;;;;;9.30;3.50;;;;;;;11.81;66.53;101713.06;5048435;28;20086;-68
2021/04/22 01:21:55;;;;;;;7.60;3.33;;;;;;;11.77;66.61;101716.47;5048254;28;20041;-68
2021/04/22 01:24:22;;;;;;;9.43;3.35;;;;;;;11.58;66.78;101712.44;5048716;28;20521;-68
2021/04/22 01:26:49;;;;;;;6.20;2.95;;;;;;;11.56;66.94;101719.41;5047556;28;20168;-68
2021/04/22 01:29:16;;;;;;;9.48;3.20;;;;;;;11.58;66.97;101723.91;5047116;28;20065;-68
2021/04/22 01:31:43;;;;;;;8.07;3.28;;;;;;;11.68;66.67;101721.50;5047466;28;20065;-68
2021/04/22 01:34:13;;;;;;;6.28;2.90;;;;;;;11.70;66.78;101717.13;5048582;28;20060;-68
2021/04/22 01:36:42;;;;;;;5.68;2.45;;;;;;;11.57;67.32;101715.91;5048003;28;20689;-67
2021/04/22 01:39:11;;;;;;;7.07;2.45;;;;;;;11.39;68.32;101710.13;5048138;28;20049;-68
2021/04/22 01:41:39;;;;;;;6.72;3.00;;;;;;;11.38;68.08;101711.88;5048285;28;20059;-67
2021/04/22 01:44:06;;;;;;;10.88;4.22;;;;;;;11.43;67.94;101709.34;5047644;28;20064;-68
2021/04/22 01:46:33;;;;;;;5.65;3.58;;;;;;;11.53;67.44;101711.41;5048097;28;20103;-68
2021/04/22 01:49:00;;;;;;;9.25;3.40;;;;;;;11.56;67.11;101707.09;5048281;28;20136;-68
2021/04/22 01:51:28;;;;;;;10.68;3.58;;;;;;;11.57;66.84;101718.56;5047255;28;20128;-68
2021/04/22 01:53:55;;;;;;;10.70;3.03;;;;;;;11.53;67.31;101714.97;5046082;28;20076;-68
2021/04/22 01:56:24;;;;;;;7.25;2.97;;;;;;;11.51;67.35;101715.75;5046910;28;20083;-67
2021/04/22 01:58:51;;;;;;;6.93;2.90;;;;;;;11.43;67.85;101709.34;5045379;28;20573;-68
2021/04/22 02:01:18;;;;;;;5.28;2.75;;;;;;;11.48;67.99;101705.13;5047633;28;20128;-68
2021/04/22 02:03:45;;;;;;;11.02;4.32;;;;;;;11.48;68.09;101713.03;5047625;28;20049;-67
2021/04/22 02:06:13;;;;;;;6.53;3.97;;;;;;;11.40;67.94;101720.75;5046609;28;20035;-68
2021/04/22 02:08:40;;;;;;;8.27;3.30;;;;;;;11.33;67.90;101713.50;5047355;28;20128;-68
2021/04/22 02:11:07;;;;;;;9.13;3.60;;;;;;;11.40;67.89;101714.56;5046895;28;20090;-69
2021/04/22 02:13:36;;;;;;;10.13;3.97;;;;;;;11.38;67.57;101713.63;5048306;28;20440;-68
2021/04/22 02:16:03;;;;;;;10.70;3.80;;;;;;;11.42;67.49;101713.75;5046642;28;20400;-68
2021/04/22 02:18:31;;;;;;;6.97;3.25;;;;;;;11.45;67.25;101713.84;5047918;28;20439;-68
2021/04/22 02:20:58;;;;;;;7.75;3.00;;;;;;;11.33;67.63;101723.19;5044973;28;20137;-68
2021/04/22 02:23:26;;;;;;;7.03;2.85;;;;;;;11.30;67.68;101715.16;5047248;28;20037;-68
2021/04/22 02:25:53;;;;;;;7.05;3.30;;;;;;;11.31;67.51;101722.25;5047561;28;20052;-68
2021/04/22 02:28:20;;;;;;;7.45;3.35;;;;;;;11.22;67.51;101727.28;5047262;28;20724;-68
2021/04/22 02:30:48;;;;;;;8.32;3.70;;;;;;;11.13;67.61;101722.63;5047528;28;20512;-67
2021/04/22 02:33:19;;;;;;;6.03;2.50;;;;;;;11.13;67.85;101730.56;5047179;28;20128;-67
2021/04/22 02:35:47;;;;;;;5.97;3.05;;;;;;;11.25;67.53;101727.34;5047012;28;20124;-67
2021/04/22 02:38:15;;;;;;;6.85;3.20;;;;;;;11.25;67.35;101736.19;5047144;28;20132;-68
2021/04/22 02:40:45;;;;;;;8.10;3.13;;;;;;;11.26;67.34;101742.38;5050917;28;20124;-68
2021/04/22 02:43:14;;;;;;;6.55;3.17;;;;;;;11.13;67.69;101742.03;5051891;28;20053;-67
2021/04/22 02:45:43;;;;;;;8.93;3.40;;;;;;;11.09;67.76;101741.91;5049822;28;20049;-68
2021/04/22 02:48:13;;;;;;;15.10;5.50;;;;;;;11.11;67.76;101746.34;5051649;28;20494;-68
2021/04/22 02:50:43;;;;;;;11.85;3.80;;;;;;;11.06;67.70;101744.44;5051243;28;20071;-67
2021/04/22 02:53:10;;;;;;;12.65;3.95;;;;;;;11.04;67.96;101749.66;5051128;28;20396;-68
2021/04/22 02:55:38;;;;;;;8.25;3.10;;;;;;;10.96;68.02;101748.53;5050747;28;20030;-68
2021/04/22 02:58:05;;;;;;;9.15;3.83;;;;;;;11.00;67.93;101749.53;5050115;28;20041;-67
2021/04/22 03:00:32;;;;;;;9.20;3.83;;;;;;;10.89;68.05;101754.53;5049827;28;20219;-68
2021/04/22 03:03:00;;;;;;;14.82;4.28;;;;;;;10.88;68.21;101765.03;5049923;28;20064;-67
2021/04/22 03:05:28;;;;;;;7.72;3.35;;;;;;;10.94;67.98;101758.19;5050524;28;20033;-68
2021/04/22 03:07:55;;;;;;;8.20;3.63;;;;;;;10.92;68.16;101761.63;5035863;28;20116;-68
2021/04/22 03:10:24;;;;;;;8.57;2.90;;;;;;;10.94;68.21;101755.53;5050648;28;20037;-67
2021/04/22 03:12:52;;;;;;;9.40;3.58;;;;;;;10.95;68.12;101759.09;5050443;28;20041;-67
2021/04/22 03:15:20;;;;;;;6.68;2.95;;;;;;;10.87;68.24;101766.78;5049726;28;20452;-67
2021/04/22 03:17:48;;;;;;;10.30;3.85;;;;;;;10.83;68.29;101769.28;5049583;28;20064;-68
2021/04/22 03:20:16;;;;;;;10.60;4.00;;;;;;;10.77;68.65;101764.69;5031492;28;20045;-68
2021/04/22 03:22:45;;;;;;;9.80;3.65;;;;;;;10.72;68.62;101772.47;5036656;28;20072;-68
2021/04/22 03:25:15;;;;;;;8.43;3.28;;;;;;;10.66;68.95;101772.28;5050592;28;20057;-70
2021/04/22 03:27:42;;;;;;;7.68;3.38;;;;;;;10.75;68.94;101769.03;5032711;28;20558;-70
2021/04/22 03:30:12;;;;;;;6.75;2.80;;;;;;;10.83;68.57;101769.28;5050942;28;20037;-67
2021/04/22 03:32:39;;;;;;;6.28;3.00;;;;;;;10.81;68.83;101773.63;5050353;28;20124;-67
2021/04/22 03:35:08;;;;;;;6.95;3.20;;;;;;;10.91;68.42;101781.84;5048748;28;20124;-67
2021/04/22 03:37:35;;;;;;;10.00;4.00;;;;;;;10.89;68.42;101782.69;5049591;28;20099;-68
2021/04/22 03:40:05;;;;;;;16.02;4.88;;;;;;;10.85;68.36;101788.69;5050391;28;20144;-67
2021/04/22 03:42:33;;;;;;;8.50;3.25;;;;;;;10.84;68.41;101778.97;5049177;28;20177;-67
2021/04/22 03:45:00;;;;;;;12.65;3.40;;;;;;;10.85;68.37;101783.41;5050389;28;20072;-67
2021/04/22 03:47:27;;;;;;;8.95;3.53;;;;;;;10.84;68.35;101790.44;5049633;28;20063;-67
2021/04/22 03:49:55;;;;;;;12.25;5.72;;;;;;;10.76;68.89;101795.47;5049406;28;20728;-67
2021/04/22 03:52:22;;;;;;;12.70;7.22;;;;;;;10.90;69.16;101801.19;5049829;28;20116;-68
2021/04/22 03:54:49;;;;;;;10.82;4.80;;;;;;;10.94;69.56;101805.75;5049683;28;20131;-67
2021/04/22 03:57:18;;;;;;;9.45;4.95;;;;;;;11.11;69.99;101812.41;5049529;28;20132;-68
2021/04/22 03:59:45;;;;;;;8.05;4.22;;;;;;;11.34;70.13;101817.50;5049598;28;20098;-68
2021/04/22 04:02:12;;;;;;;8.18;3.30;;;;;;;11.52;70.22;101813.66;5049498;28;20128;-68
2021/04/22 04:04:40;;;;;;;10.20;4.70;;;;;;;11.49;70.66;101815.28;5043295;28;20501;-68
2021/04/22 04:07:07;;;;;;;12.38;8.18;;;;;;;11.63;71.13;101815.69;5012275;28;20116;-67
2021/04/22 04:09:34;;;;;;;9.07;6.50;;;;;;;11.84;71.01;101817.22;5049175;28;20501;-67
2021/04/22 04:12:01;;;;;;;9.57;5.60;;;;;;;12.04;71.23;101822.16;5049253;28;20041;-67
2021/04/22 04:14:30;;;;;;;11.75;3.80;;;;;;;12.17;71.36;101818.97;5049612;28;20037;-68
2021/04/22 04:16:57;;;;;;;12.63;4.55;;;;;;;12.33;71.53;101824.72;5048716;28;20058;-68
2021/04/22 04:19:25;;;;;;;8.52;4.70;;;;;;;12.48;71.58;101832.13;5049036;28;20128;-68
2021/04/22 04:21:52;;;;;;;13.02;6.80;;;;;;;12.69;71.45;101826.47;5048992;28;20036;-68
2021/04/22 04:24:19;;;;;;;9.95;5.50;;;;;;;12.83;71.23;101826.78;5049268;28;20132;-68
2021/04/22 04:26:46;;;;;;;7.95;3.33;;;;;;;12.95;70.97;101825.31;5049145;28;20067;-68
2021/04/22 04:29:14;;;;;;;9.23;4.53;;;;;;;13.11;71.15;101824.81;5048896;28;20048;-68
2021/04/22 04:31:42;;;;;;;9.32;4.03;;;;;;;13.27;71.19;101819.84;5048269;28;20058;-68
2021/04/22 04:34:10;;;;;;;5.75;2.80;;;;;;;13.45;71.06;101825.59;5049201;28;20071;-67
2021/04/22 04:36:37;;;;;;;4.55;2.60;;;;;;;13.69;70.56;101820.78;5049160;28;20136;-68
2021/04/22 04:39:04;;;;;;;4.40;2.53;;;;;;;13.93;70.00;101823.00;5048526;28;20108;-68
2021/04/22 04:41:31;;;;;;;6.00;2.33;;;;;;;14.05;69.79;101823.22;5048544;28;20112;-68
2021/04/22 04:43:58;;;;;;;7.75;2.42;;;;;;;14.28;69.47;101820.97;5048576;28;20124;-68
2021/04/22 04:46:25;;;;;;;4.80;2.35;;;;;;;14.49;68.73;101818.72;5048906;28;20556;-68
2021/04/22 04:48:54;;;;;;;3.33;1.95;;;;;;;14.56;68.30;101828.59;5030742;28;20505;-68
2021/04/22 04:51:21;;;;;;;3.78;2.10;;;;;;;14.64;67.77;101831.34;5048352;28;20037;-68
2021/04/22 04:53:48;;;;;;;7.78;2.47;;;;;;;14.87;67.79;101837.94;5048695;28;20512;-68
2021/04/22 04:56:17;;;;;;;7.80;2.47;;;;;;;15.09;67.53;101836.50;5048361;28;20168;-68
2021/04/22 04:58:45;;;;;;;5.28;2.40;;;;;;;15.27;67.31;101825.22;5046093;28;20049;-69
2021/04/22 05:01:12;;;;;;;6.45;2.22;;;;;;;15.48;67.32;101830.81;5045360;28;20362;-68
2021/04/22 05:03:39;;;;;;;5.07;2.53;;;;;;;15.76;66.99;101826.75;5030747;28;20040;-68
2021/04/22 05:06:08;;;;;;;7.82;2.70;;;;;;;16.01;66.26;101835.91;5047760;28;20194;-68
2021/04/22 05:08:36;;;;;;;6.13;2.40;;;;;;;16.25;65.89;101830.81;5048582;28;20584;-69
2021/04/22 05:11:05;;;;;;;6.63;2.53;;;;;;;16.47;65.11;101838.16;5047426;28;20040;-69
2021/04/22 05:13:32;;;;;;;5.07;2.55;;;;;;;16.72;64.72;101848.16;5036270;28;20045;-69
2021/04/22 05:15:59;;;;;;;5.38;3.13;;;;;;;16.96;63.94;101851.88;5042835;28;20057;-68
2021/04/22 05:18:26;;;;;;;5.68;2.90;;;;;;;17.19;63.37;101855.59;5048381;28;20119;-68
2021/04/22 05:20:54;;;;;;;4.32;2.55;;;;;;;17.44;62.88;101854.84;5045030;28;20069;-68
2021/04/22 05:23:22;;;;;;;5.63;2.40;;;;;;;17.72;62.00;101852.34;5034508;28;20115;-68
2021/04/22 05:25:50;;;;;;;5.97;2.42;;;;;;;18.00;61.60;101856.88;5042308;28;20133;-69
2021/04/22 05:28:17;;;;;;;6.40;3.30;;;;;;;18.27;61.25;101861.38;5047612;28;20036;-69
2021/04/22 05:30:44;;;;;;;9.43;2.70;;;;;;;18.50;60.60;101862.31;5047347;28;20090;-69
2021/04/22 05:33:12;;;;;;;5.38;2.60;;;;;;;18.70;59.81;101859.69;5032465;28;20436;-69
2021/04/22 05:35:39;;;;;;;5.80;2.00;;;;;;;18.96;58.64;101857.00;5031549;28;20561;-69
2021/04/22 05:38:07;;;;;;;7.70;2.67;;;;;;;19.16;57.67;101860.53;5043493;28;20037;-69
2021/04/22 05:40:36;;;;;;;5.38;2.70;;;;;;;19.37;57.61;101862.22;5047451;28;20095;-69
2021/04/22 05:43:06;;;;;;;5.70;2.22;;;;;;;19.59;56.49;101855.06;5048392;28;20094;-68
2021/04/22 05:45:34;;;;;;;9.50;3.08;;;;;;;19.79;55.26;101869.28;5030246;28;20045;-69
2021/04/22 05:48:01;;;;;;;7.10;2.30;;;;;;;19.95;54.32;101860.28;5047119;28;20721;-69
2021/04/22 05:50:28;;;;;;;7.75;2.22;;;;;;;20.13;53.57;101873.56;5045414;28;20112;-69
2021/04/22 05:52:55;;;;;;;6.78;2.78;;;;;;;20.25;52.64;101870.81;5047214;28;20132;-69
2021/04/22 05:55:23;;;;;;;7.28;2.33;;;;;;;20.40;51.81;101877.00;5047229;28;20120;-69
2021/04/22 05:57:54;;;;;;;7.57;2.30;;;;;;;20.56;51.13;101881.34;5047733;28;20529;-69
2021/04/22 06:00:22;;;;;;;7.10;2.65;;;;;;;20.75;50.81;101884.75;5044924;28;20465;-69
2021/04/22 06:02:49;;;;;;;5.20;2.42;;;;;;;20.94;50.54;101878.34;5035327;28;20037;-69
2021/04/22 06:05:17;;;;;;;5.25;2.38;;;;;;;21.13;49.69;101879.97;5025002;28;20548;-69
2021/04/22 06:07:44;;;;;;;6.07;2.53;;;;;;;21.32;49.58;101876.22;5044120;28;20140;-70
2021/04/22 06:10:13;;;;;;;5.60;2.30;;;;;;;21.54;48.98;101881.31;5035772;28;20103;-69
2021/04/22 06:12:40;;;;;;;6.50;2.17;;;;;;;21.66;48.69;101881.22;5043979;28;20469;-70
2021/04/22 06:15:09;;;;;;;4.18;2.15;;;;;;;21.64;47.98;101885.69;5039400;28;20061;-70
2021/04/22 06:17:36;;;;;;;4.78;1.90;;;;;;;21.77;48.43;101879.25;5033368;28;20120;-69
2021/04/22 06:20:08;;;;;;;5.03;2.20;;;;;;;21.96;48.08;101888.91;5051194;28;20826;-69
2021/04/22 06:22:35;;;;;;;7.18;2.50;;;;;;;22.07;47.41;101889.63;5051218;28;20041;-69
2021/04/22 06:25:02;;;;;;;4.75;1.80;;;;;;;21.98;47.43;101887.09;5051087;28;20116;-69
2021/04/22 06:27:30;;;;;;;4.53;1.40;;;;;;;22.12;47.17;101890.47;5033443;28;20116;-69
2021/04/22 06:29:57;;;;;;;14.23;2.17;;;;;;;22.21;46.64;101897.53;5051118;28;20112;-69
2021/04/22 06:32:26;;;;;;;6.55;1.60;;;;;;;22.40;46.68;101903.53;5050598;28;20047;-71
2021/04/22 06:34:53;;;;;;;7.32;1.88;;;;;;;22.42;45.34;101907.09;5051048;28;20037;-69
2021/04/22 06:37:20;;;;;;;3.75;1.65;;;;;;;22.55;45.53;101911.38;5033716;28;20049;-69
2021/04/22 06:39:47;;;;;;;5.20;1.33;;;;;;;22.81;44.79;101916.38;5051569;28;20132;-70
2021/04/22 06:42:14;;;;;;;5.65;1.65;;;;;;;22.98;44.20;101911.59;5048210;28;20048;-71
2021/04/22 06:44:42;;;;;;;4.45;1.10;;;;;;;23.09;43.87;101908.72;5051433;28;20053;-70
2021/04/22 06:47:09;;;;;;;3.28;1.02;;;;;;;23.02;42.32;101916.91;5050081;28;20044;-71
2021/04/22 06:49:38;;;;;;;4.90;1.15;;;;;;;22.88;42.30;101913.56;5049160;28;20037;-70
2021/04/22 06:52:06;;;;;;;8.35;2.33;;;;;;;23.05;42.33;101913.25;5047802;28;20059;-71
2021/04/22 06:54:33;;;;;;;6.00;1.38;;;;;;;23.19;41.98;101910.31;5050080;28;20037;-71
2021/04/22 06:57:01;;;;;;;5.72;1.55;;;;;;;23.31;41.61;101907.41;5050480;28;20056;-70
2021/04/22 06:59:28;;;;;;;9.48;1.65;;;;;;;23.29;41.28;101911.94;5048987;28;20033;-70
2021/04/22 07:01:56;;;;;;;4.82;1.25;;;;;;;23.28;40.91;101915.56;5051285;28;20099;-70
2021/04/22 07:04:23;;;;;;;5.60;1.15;;;;;;;23.36;40.39;101913.63;5050322;28;20583;-71
2021/04/22 07:06:51;;;;;;;2.85;1.42;;;;;;;23.41;39.93;101911.72;5050124;28;20044;-71
2021/04/22 07:09:19;;;;;;;8.23;2.45;;;;;;;23.48;38.97;101909.81;5050553;28;20091;-70
2021/04/22 07:11:47;;;;;;;5.20;2.40;;;;;;;23.39;38.42;101910.84;5050003;28;20033;-71
2021/04/22 07:14:14;;;;;;;6.22;2.55;;;;;;;23.30;38.39;101914.59;5050919;28;20120;-71
2021/04/22 07:16:41;;;;;;;5.30;1.90;;;;;;;23.30;38.43;101922.66;5050910;28;20129;-70
2021/04/22 07:19:09;;;;;;;5.57;2.28;;;;;;;23.31;38.32;101920.88;5050562;28;20127;-71
2021/04/22 07:21:36;;;;;;;3.97;0.93;;;;;;;23.15;38.49;101919.38;5049967;28;20124;-70
2021/04/22 07:24:05;;;;;;;5.05;1.50;;;;;;;23.16;38.62;101931.94;5050354;28;20045;-71
2021/04/22 07:26:32;;;;;;;6.00;2.13;;;;;;;23.40;38.36;101924.31;5032529;28;20037;-70
2021/04/22 07:28:59;;;;;;;2.22;1.25;;;;;;;23.61;36.98;101932.94;5050465;28;20041;-71
2021/04/22 07:31:27;;;;;;;4.32;1.40;;;;;;;23.78;36.55;101931.66;5049642;28;20072;-70
2021/04/22 07:33:54;;;;;;;5.90;3.15;;;;;;;23.94;36.55;101928.66;5050004;28;20543;-71
2021/04/22 07:36:21;;;;;;;3.28;1.15;;;;;;;24.11;36.27;101924.69;5050050;28;20107;-71
2021/04/22 07:38:49;;;;;;;2.92;0.80;;;;;;;24.42;35.50;101922.19;5050270;28;20041;-70
2021/04/22 07:41:18;;;;;;;4.70;1.10;;;;;;;24.54;34.15;101929.16;5050241;28;20108;-71
2021/04/22 07:43:45;;;;;;;2.75;1.00;;;;;;;24.63;34.41;101931.63;5050479;28;20048;-71
2021/04/22 07:46:13;;;;;;;2.65;1.13;;;;;;;24.73;34.31;101935.00;5050861;28;20761;-70
2021/04/22 07:48:41;;;;;;;4.05;1.10;;;;;;;24.73;34.29;101937.69;5050311;28;20049;-70
2021/04/22 07:51:08;;;;;;;7.32;1.00;;;;;;;24.72;34.00;101955.72;5049967;28;20119;-71
2021/04/22 07:53:35;;;;;;;5.43;1.13;;;;;;;24.22;34.00;101944.25;5049827;28;20551;-71
2021/04/22 07:56:03;;;;;;;3.75;1.08;;;;;;;24.38;33.92;101943.91;5050074;28;20094;-71
2021/04/22 07:58:32;;;;;;;3.90;1.00;;;;;;;24.51;33.21;101949.00;5050099;28;20037;-71
2021/04/22 08:01:00;;;;;;;3.47;0.85;;;;;;;24.53;32.44;101947.16;5049683;28;20045;-71
2021/04/22 08:03:27;;;;;;;4.25;1.38;;;;;;;24.70;32.72;101948.56;5050106;28;20052;-71
2021/04/22 08:05:56;;;;;;;2.72;0.80;;;;;;;24.74;33.11;101951.19;5049314;28;20132;-71
2021/04/22 08:08:24;;;;;;;3.92;1.00;;;;;;;24.90;32.66;101957.13;5049341;28;20040;-71
2021/04/22 08:10:52;;;;;;;1.85;0.80;;;;;;;24.80;32.62;101939.34;5049946;28;20041;-71
2021/04/22 08:13:21;;;;;;;3.13;0.90;;;;;;;24.79;32.69;101941.16;5049515;28;20557;-71
2021/04/22 08:15:53;;;;;;;3.20;0.70;;;;;;;24.61;31.35;101942.44;5049217;28;20115;-71
2021/04/22 08:18:23;;;;;;;2.28;0.80;;;;;;;24.67;31.98;101944.16;5049296;28;20128;-71
2021/04/22 08:20:50;;;;;;;8.25;1.27;;;;;;;24.87;32.20;101941.84;5048911;28;20041;-71
2021/04/22 08:23:18;;;;;;;4.55;1.42;;;;;;;24.94;31.53;101939.91;5049129;28;20124;-71
2021/04/22 08:25:47;;;;;;;2.65;0.82;;;;;;;24.78;31.59;101943.88;5049778;28;20083;-72
2021/04/22 08:28:18;;;;;;;4.15;0.95;;;;;;;24.62;31.63;101938.84;5050112;28;20095;-71
2021/04/22 08:30:49;;;;;;;3.08;1.02;;;;;;;24.63;31.64;101950.53;5048736;28;20069;-71
2021/04/22 08:33:19;;;;;;;3.60;1.27;;;;;;;24.84;31.58;101949.13;5049266;28;20124;-72
2021/04/22 08:35:46;;;;;;;4.05;1.10;;;;;;;25.03;31.22;101947.78;5048941;28;20128;-71
2021/04/22 08:38:14;;;;;;;5.43;1.58;;;;;;;24.90;31.26;101952.59;5048477;28;20712;-71
2021/04/22 08:40:41;;;;;;;4.40;1.00;;;;;;;25.05;31.05;101954.03;5049513;28;20041;-71
2021/04/22 08:43:11;;;;;;;3.67;1.20;;;;;;;25.12;30.74;101952.06;5048870;28;20029;-71
2021/04/22 08:45:38;;;;;;;5.05;1.30;;;;;;;25.19;30.18;101940.16;5049370;28;20576;-71
2021/04/22 08:48:07;;;;;;;3.35;1.00;;;;;;;25.15;30.54;101942.06;5049304;28;20132;-71
2021/04/22 08:50:36;;;;;;;1.88;1.10;;;;;;;25.05;30.73;101947.75;5048376;28;20461;-71
2021/04/22 08:53:08;;;;;;;4.10;0.98;;;;;;;25.19;30.96;101943.78;5049079;28;20121;-71
2021/04/22 08:55:36;;;;;;;2.67;0.90;;;;;;;25.17;30.47;101942.03;5048947;28;20069;-71
2021/04/22 08:58:06;;;;;;;2.60;1.08;;;;;;;25.18;29.73;101938.38;5048773;28;20082;-70
2021/04/22 09:00:37;;;;;;;4.22;0.95;;;;;;;25.18;29.23;101933.88;5048937;28;20047;-71
2021/04/22 09:03:05;;;;;;;4.68;1.23;;;;;;;25.36;28.98;101932.50;5048264;28;20453;-71
2021/04/22 09:05:32;;;;;;;2.83;0.90;;;;;;;25.41;29.05;101927.84;5048325;28;20048;-70
2021/04/22 09:08:00;;;;;;;2.53;0.90;;;;;;;25.48;28.38;101921.34;5048941;28;20114;-71
2021/04/22 09:10:28;;;;;;;2.97;0.88;;;;;;;25.71;28.18;101920.75;5048737;28;20056;-71
2021/04/22 09:13:02;;;;;;;3.10;0.85;;;;;;;25.84;27.93;101923.97;5030628;28;20045;-70
2021/04/22 09:15:32;;;;;;;5.65;1.42;;;;;;;25.74;28.46;101928.75;5047925;28;20045;-71
2021/04/22 09:18:01;;;;;;;3.40;1.17;;;;;;;25.64;29.61;101916.44;5047788;28;20044;-71
2021/04/22 09:20:33;;;;;;;5.15;1.02;;;;;;;25.82;29.61;101921.31;5031142;28;20033;-70
2021/04/22 09:23:12;;;;;;;3.88;1.08;;;;;;;25.91;29.43;101926.47;5048256;28;20041;-70
2021/04/22 09:25:40;;;;;;;3.22;0.90;;;;;;;25.68;30.93;101908.16;5047802;28;20060;-71
2021/04/22 09:28:09;;;;;;;4.60;1.02;;;;;;;25.83;31.12;101914.97;5031028;28;20045;-71
2021/04/22 09:30:39;;;;;;;3.00;0.80;;;;;;;25.96;30.89;101913.69;5030915;28;20053;-71
2021/04/22 09:33:09;;;;;;;3.13;1.17;;;;;;;26.31;31.09;101919.88;5029852;28;20041;-71
2021/04/22 09:35:37;;;;;;;2.08;0.90;;;;;;;26.47;30.37;101921.16;5048538;28;20095;-71
2021/04/22 09:38:05;;;;;;;3.08;1.10;;;;;;;26.46;30.18;101914.84;5048002;28;20087;-70
2021/04/22 09:40:35;;;;;;;3.30;1.30;;;;;;;26.39;29.61;101915.09;5048261;28;20037;-71
2021/04/22 09:43:06;;;;;;;2.35;0.95;;;;;;;25.99;29.44;101907.28;5048269;28;20048;-71
2021/04/22 09:45:35;;;;;;;5.35;1.02;;;;;;;25.78;30.50;101911.53;5048511;28;20125;-70
2021/04/22 09:48:14;;;;;;;2.92;0.90;;;;;;;26.04;30.30;101913.44;5049091;28;20045;-71
2021/04/22 09:50:43;;;;;;;4.63;1.35;;;;;;;25.82;30.41;101913.19;5052843;28;20405;-71
2021/04/22 09:53:14;;;;;;;2.70;0.80;;;;;;;26.06;30.25;101914.28;5051981;28;20082;-71
2021/04/22 09:55:41;;;;;;;3.05;0.80;;;;;;;26.14;29.99;101906.81;5052282;28;20052;-71
2021/04/22 09:58:09;;;;;;;4.72;1.33;;;;;;;26.03;30.99;101911.66;5052335;28;20068;-71
2021/04/22 10:00:37;;;;;;;4.10;1.10;;;;;;;25.86;31.95;101911.31;5051754;28;20033;-71
2021/04/22 10:03:10;;;;;;;3.97;1.00;;;;;;;25.63;32.40;101909.25;5051841;28;20079;-71
2021/04/22 10:05:39;;;;;;;5.43;1.20;;;;;;;25.90;30.72;101900.31;5052150;28;20045;-71
2021/04/22 10:08:10;;;;;;;3.95;1.02;;;;;;;26.03;29.83;101899.03;5051675;28;20044;-71
2021/04/22 10:10:40;;;;;;;3.67;1.20;;;;;;;26.00;29.89;101888.28;5051477;28;20098;-71
2021/04/22 10:13:09;;;;;;;1.90;0.80;;;;;;;25.72;29.47;101890.94;5052332;28;20104;-71
2021/04/22 10:15:37;;;;;;;1.60;0.80;;;;;;;25.73;28.60;101889.13;5051671;28;20078;-71
2021/04/22 10:18:08;;;;;;;5.68;1.38;;;;;;;25.88;28.71;101888.66;5051963;28;20065;-71
2021/04/22 10:20:36;;;;;;;3.75;0.95;;;;;;;25.75;29.13;101884.53;5051558;28;20235;-71
2021/04/22 10:23:05;;;;;;;3.55;1.23;;;;;;;25.86;29.84;101886.94;5050992;28;20057;-71
2021/04/22 10:25:34;;;;;;;3.05;1.10;;;;;;;25.57;30.40;101893.16;5050903;28;20037;-71
2021/04/22 10:28:10;;;;;;;3.08;1.30;;;;;;;25.49;30.38;101889.78;5050682;28;20128;-71
2021/04/22 10:30:39;;;;;;;3.28;1.10;;;;;;;25.23;31.80;101904.91;5051488;28;20045;-72
2021/04/22 10:33:07;;;;;;;4.90;1.27;;;;;;;25.36;32.11;101900.03;5033543;28;20073;-71
2021/04/22 10:35:37;;;;;;;7.75;1.30;;;;;;;25.66;32.22;101899.25;5050564;28;20116;-71
2021/04/22 10:38:08;;;;;;;2.83;1.20;;;;;;;25.24;33.15;101898.56;5050214;28;20045;-71
2021/04/22 10:40:39;;;;;;;3.17;1.10;;;;;;;24.75;33.65;101895.31;5056095;28;20493;-71
2021/04/22 10:43:16;;;;;;;4.88;1.38;;;;;;;24.79;34.09;101894.31;5049026;28;20098;-70
2021/04/22 10:45:46;;;;;;;3.97;1.23;;;;;;;24.76;34.26;101884.47;5050982;28;20057;-70
2021/04/22 10:48:14;;;;;;;4.72;1.10;;;;;;;24.99;34.10;101894.75;5050748;28;20037;-70
2021/04/22 10:50:48;;;;;;;3.30;1.00;;;;;;;25.12;34.13;101896.19;5045573;28;20114;-70
2021/04/22 10:53:19;;;;;;;4.60;1.27;;;;;;;24.95;34.43;101903.84;5043268;28;20043;-71
2021/04/22 10:55:48;;;;;;;5.38;1.63;;;;;;;24.56;34.67;101898.47;5039044;28;20049;-70
2021/04/22 10:58:19;;;;;;;4.93;1.50;;;;;;;24.36;34.89;101891.75;5042083;28;20055;-70
2021/04/22 11:00:49;;;;;;;6.15;1.92;;;;;;;24.35;35.51;101898.97;5050782;28;20551;-70
2021/04/22 11:03:26;;;;;;;6.03;1.30;;;;;;;24.27;36.15;101892.88;5043283;28;20086;-71
2021/04/22 11:05:55;;;;;;;3.50;1.50;;;;;;;24.38;35.75;101890.81;5050938;28;20057;-70
2021/04/22 11:08:31;;;;;;;4.70;1.38;;;;;;;24.58;34.62;101893.94;5047239;28;20040;-70
2021/04/22 11:10:59;;;;;;;3.10;1.30;;;;;;;24.71;34.02;101889.09;5050167;28;20140;-70
2021/04/22 11:13:32;;;;;;;3.90;1.20;;;;;;;24.84;33.70;101892.38;5050803;28;20051;-70
2021/04/22 11:16:03;;;;;;;2.67;1.20;;;;;;;24.75;34.39;101880.00;5049885;28;20128;-70
2021/04/22 11:18:41;;;;;;;4.28;1.40;;;;;;;24.84;34.28;101884.28;5049841;28;20691;-70
2021/04/22 11:21:22;;;;;;;3.42;1.30;;;;;;;24.90;34.61;101884.16;5049775;28;20068;-70
2021/04/22 11:23:49;;;;;;;5.70;1.30;;;;;;;24.93;34.59;101878.69;5048831;28;20041;-70
2021/04/22 11:26:29;;;;;;;4.78;1.30;;;;;;;25.09;34.27;101882.75;5050423;28;20120;-69
2021/04/22 11:29:09;;;;;;;5.38;1.48;;;;;;;25.23;35.30;101880.56;5050174;28;20052;-69